Time,TemperatureF,DewpointF,PressureIn,WindDirection,WindDirectionDegrees,WindSpeedMPH,WindSpeedGustMPH,Humidity,HourlyPrecipIn,Conditions,Clouds,dailyrainin,SoftwareType,DateUTC
2013-01-09 00:00:00,29.6,26.5,30.04,WNW,283,10.0,16.0,88,0.00,,,0.00,VWS V14.01,2013-01-09 06:00:00,
2013-01-09 00:03:00,29.5,26.4,30.04,WNW,290,13.0,13.0,88,0.00,,,0.00,VWS V14.01,2013-01-09 06:03:00,
2013-01-09 00:08:00,29.4,26.3,30.04,WSW,248,10.0,13.0,88,0.00,,,0.00,VWS V14.01,2013-01-09 06:08:00,
2013-01-09 00:13:00,29.4,26.3,30.04,West,262,6.0,13.0,88,0.00,,,0.00,VWS V14.01,2013-01-09 06:13:00,
2013-01-09 00:18:00,29.3,26.2,30.04,West,271,5.0,14.0,88,0.00,,,0.00,VWS V14.01,2013-01-09 06:18:00,
2013-01-09 00:23:00,29.1,26.0,30.04,WSW,258,3.0,14.0,88,0.00,,,0.00,VWS V14.01,2013-01-09 06:23:00,
2013-01-09 00:28:00,29.1,26.0,30.04,West,270,7.0,14.0,88,0.00,,,0.00,VWS V14.01,2013-01-09 06:28:00,
2013-01-09 00:30:00,29.0,25.9,30.04,WSW,245,6.0,14.0,88,0.00,,,0.00,VWS V14.01,2013-01-09 06:30:00,
2013-01-09 00:33:00,28.9,25.8,30.04,WSW,246,10.0,11.0,88,0.00,,,0.00,VWS V14.01,2013-01-09 06:33:00,
2013-01-09 00:38:00,28.8,26.0,30.04,West,267,8.0,11.0,89,0.00,,,0.00,VWS V14.01,2013-01-09 06:38:00,
2013-01-09 00:43:00,28.7,25.9,30.04,West,272,6.0,11.0,89,0.00,,,0.00,VWS V14.01,2013-01-09 06:43:00,
2013-01-09 00:48:00,28.7,25.6,30.04,West,274,8.0,11.0,88,0.00,,,0.00,VWS V14.01,2013-01-09 06:48:00,
2013-01-09 00:53:00,28.5,25.7,30.05,West,276,7.0,11.0,89,0.00,,,0.00,VWS V14.01,2013-01-09 06:53:00,
2013-01-09 00:58:00,28.6,25.5,30.05,WSW,242,5.0,12.0,88,0.00,,,0.00,VWS V14.01,2013-01-09 06:58:00,
2013-01-09 01:00:00,28.5,25.4,30.05,West,263,5.0,12.0,88,0.00,,,0.00,VWS V14.01,2013-01-09 07:00:00,
2013-01-09 01:03:00,28.3,25.2,30.05,SW,233,4.0,10.0,88,0.00,,,0.00,VWS V14.01,2013-01-09 07:03:00,
2013-01-09 01:08:00,28.1,25.0,30.06,West,281,4.0,10.0,88,0.00,,,0.00,VWS V14.01,2013-01-09 07:08:00,
2013-01-09 01:13:00,27.8,25.0,30.06,West,276,5.0,10.0,89,0.00,,,0.00,VWS V14.01,2013-01-09 07:13:00,
2013-01-09 01:18:00,27.9,25.4,30.06,WNW,287,6.0,13.0,90,0.00,,,0.00,VWS V14.01,2013-01-09 07:18:00,
2013-01-09 01:23:00,28.2,25.4,30.06,West,280,7.0,13.0,89,0.00,,,0.00,VWS V14.01,2013-01-09 07:23:00,
2013-01-09 01:28:00,28.3,25.5,30.06,SW,228,4.0,13.0,89,0.00,,,0.00,VWS V14.01,2013-01-09 07:28:00,
2013-01-09 01:30:00,28.3,25.5,30.06,SW,223,5.0,13.0,89,0.00,,,0.00,VWS V14.01,2013-01-09 07:30:00,
2013-01-09 01:33:00,28.2,25.4,30.06,WSW,252,3.0,8.0,89,0.00,,,0.00,VWS V14.01,2013-01-09 07:33:00,
2013-01-09 01:38:00,28.0,24.9,30.06,SSW,207,5.0,9.0,88,0.00,,,0.00,VWS V14.01,2013-01-09 07:38:00,
2013-01-09 01:43:00,27.8,25.0,30.06,WSW,257,5.0,10.0,89,0.00,,,0.00,VWS V14.01,2013-01-09 07:43:00,
2013-01-09 01:48:00,27.8,25.0,30.07,WSW,242,13.0,13.0,89,0.00,,,0.00,VWS V14.01,2013-01-09 07:48:00,
2013-01-09 01:53:00,27.6,24.8,30.08,West,259,5.0,13.0,89,0.00,,,0.00,VWS V14.01,2013-01-09 07:53:00,
2013-01-09 01:58:00,27.2,24.4,30.08,West,263,8.0,13.0,89,0.00,,,0.00,VWS V14.01,2013-01-09 07:58:00,
2013-01-09 02:00:00,27.2,24.7,30.08,WSW,240,10.0,13.0,90,0.00,,,0.00,VWS V14.01,2013-01-09 08:00:00,
2013-01-09 02:03:00,27.2,24.7,30.08,West,262,5.0,13.0,90,0.00,,,0.00,VWS V14.01,2013-01-09 08:03:00,
2013-01-09 02:08:00,27.1,24.6,30.08,WSW,248,7.0,13.0,90,0.00,,,0.00,VWS V14.01,2013-01-09 08:08:00,
2013-01-09 02:13:00,27.1,24.6,30.08,WSW,252,5.0,13.0,90,0.00,,,0.00,VWS V14.01,2013-01-09 08:13:00,
2013-01-09 02:18:00,27.0,24.5,30.09,West,281,5.0,13.0,90,0.00,,,0.00,VWS V14.01,2013-01-09 08:18:00,
2013-01-09 02:23:00,26.9,24.4,30.09,WSW,252,4.0,13.0,90,0.00,,,0.00,VWS V14.01,2013-01-09 08:23:00,
2013-01-09 02:28:00,26.8,24.3,30.10,WSW,246,6.0,13.0,90,0.00,,,0.00,VWS V14.01,2013-01-09 08:28:00,
2013-01-09 02:30:00,26.8,24.3,30.10,WSW,242,5.0,13.0,90,0.00,,,0.00,VWS V14.01,2013-01-09 08:30:00,
2013-01-09 02:33:00,26.7,24.2,30.10,WSW,248,7.0,12.0,90,0.00,,,0.00,VWS V14.01,2013-01-09 08:33:00,
2013-01-09 02:38:00,26.6,24.1,30.10,SW,229,8.0,12.0,90,0.00,,,0.00,VWS V14.01,2013-01-09 08:38:00,
2013-01-09 02:43:00,26.5,24.0,30.10,WSW,248,5.0,12.0,90,0.00,,,0.00,VWS V14.01,2013-01-09 08:43:00,
2013-01-09 02:48:00,26.5,24.0,30.11,WSW,256,6.0,12.0,90,0.00,,,0.00,VWS V14.01,2013-01-09 08:48:00,
2013-01-09 02:53:00,26.4,23.9,30.11,WSW,239,8.0,12.0,90,0.00,,,0.00,VWS V14.01,2013-01-09 08:53:00,
2013-01-09 02:58:00,26.3,23.8,30.11,WSW,256,8.0,12.0,90,0.00,,,0.00,VWS V14.01,2013-01-09 08:58:00,
2013-01-09 03:00:00,26.3,23.8,30.12,WSW,244,5.0,12.0,90,0.00,,,0.00,VWS V14.01,2013-01-09 09:00:00,
2013-01-09 03:03:00,26.3,23.8,30.12,West,277,4.0,12.0,90,0.00,,,0.00,VWS V14.01,2013-01-09 09:03:00,
2013-01-09 03:08:00,26.5,24.2,30.12,West,262,8.0,13.0,91,0.00,,,0.00,VWS V14.01,2013-01-09 09:08:00,
2013-01-09 03:13:00,26.8,24.3,30.12,WNW,282,9.0,13.0,90,0.00,,,0.00,VWS V14.01,2013-01-09 09:13:00,
2013-01-09 03:18:00,27.0,24.5,30.12,WSW,255,7.0,14.0,90,0.00,,,0.00,VWS V14.01,2013-01-09 09:18:00,
2013-01-09 03:23:00,27.0,24.5,30.12,WSW,257,5.0,14.0,90,0.00,,,0.00,VWS V14.01,2013-01-09 09:23:00,
2013-01-09 03:28:00,27.0,24.2,30.13,West,280,7.0,14.0,89,0.00,,,0.00,VWS V14.01,2013-01-09 09:28:00,
2013-01-09 03:34:00,26.9,24.4,30.13,WSW,249,8.0,8.0,90,0.00,,,0.00,VWS V14.01,2013-01-09 09:34:00,
2013-01-09 03:39:00,26.9,24.4,30.12,West,259,7.0,12.0,90,0.00,,,0.00,VWS V14.01,2013-01-09 09:39:00,
2013-01-09 03:44:00,26.9,24.4,30.12,West,264,6.0,12.0,90,0.00,,,0.00,VWS V14.01,2013-01-09 09:44:00,
2013-01-09 03:49:00,26.8,24.3,30.13,WSW,245,6.0,12.0,90,0.00,,,0.00,VWS V14.01,2013-01-09 09:49:00,
2013-01-09 03:54:00,26.7,24.2,30.13,West,266,4.0,12.0,90,0.00,,,0.00,VWS V14.01,2013-01-09 09:54:00,
2013-01-09 03:59:00,26.9,24.6,30.12,West,264,6.0,12.0,91,0.00,,,0.00,VWS V14.01,2013-01-09 09:59:00,
2013-01-09 04:00:00,26.9,24.6,30.13,West,277,8.0,13.0,91,0.00,,SKC,0.00,VWS V14.01,2013-01-09 10:00:00,
2013-01-09 04:04:00,27.1,24.6,30.13,West,267,5.0,11.0,90,0.00,,,0.00,VWS V14.01,2013-01-09 10:04:00,
2013-01-09 04:09:00,27.1,24.6,30.13,West,281,4.0,11.0,90,0.00,,,0.00,VWS V14.01,2013-01-09 10:09:00,
2013-01-09 04:14:00,26.7,24.2,30.13,West,260,8.0,13.0,90,0.00,,,0.00,VWS V14.01,2013-01-09 10:14:00,
2013-01-09 04:19:00,26.5,24.0,30.13,West,277,5.0,13.0,90,0.00,,,0.00,VWS V14.01,2013-01-09 10:19:00,
2013-01-09 04:24:00,26.4,23.9,30.13,West,267,10.0,13.0,90,0.00,,,0.00,VWS V14.01,2013-01-09 10:24:00,
2013-01-09 04:29:00,26.3,23.8,30.13,WSW,256,6.0,13.0,90,0.00,,,0.00,VWS V14.01,2013-01-09 10:29:00,
2013-01-09 04:30:00,26.3,24.0,30.13,West,280,10.0,13.0,91,0.00,,SKC,0.00,VWS V14.01,2013-01-09 10:30:00,
2013-01-09 04:34:00,26.6,24.3,30.14,West,276,5.0,11.0,91,0.00,,,0.00,VWS V14.01,2013-01-09 10:34:00,
2013-01-09 04:39:00,26.6,24.1,30.14,WNW,290,7.0,11.0,90,0.00,,,0.00,VWS V14.01,2013-01-09 10:39:00,
2013-01-09 04:44:00,26.3,23.8,30.14,WNW,290,6.0,11.0,90,0.00,,,0.00,VWS V14.01,2013-01-09 10:44:00,
2013-01-09 04:49:00,25.9,23.4,30.15,WNW,285,8.0,11.0,90,0.00,,,0.00,VWS V14.01,2013-01-09 10:49:00,
2013-01-09 04:54:00,25.9,23.6,30.15,West,281,5.0,12.0,91,0.00,,,0.00,VWS V14.01,2013-01-09 10:54:00,
2013-01-09 04:59:00,26.1,23.8,30.15,WNW,283,4.0,12.0,91,0.00,,,0.00,VWS V14.01,2013-01-09 10:59:00,
2013-01-09 05:00:00,26.1,23.8,30.15,West,274,8.0,12.0,91,0.00,,SKC,0.00,VWS V14.01,2013-01-09 11:00:00,
2013-01-09 05:04:00,26.1,23.8,30.15,WNW,288,9.0,10.0,91,0.00,,,0.00,VWS V14.01,2013-01-09 11:04:00,
2013-01-09 05:09:00,26.1,23.8,30.15,West,279,9.0,10.0,91,0.00,,,0.00,VWS V14.01,2013-01-09 11:09:00,
2013-01-09 05:14:00,25.9,23.6,30.15,West,277,7.0,11.0,91,0.00,,,0.00,VWS V14.01,2013-01-09 11:14:00,
2013-01-09 05:19:00,25.9,23.6,30.15,West,278,5.0,11.0,91,0.00,,,0.00,VWS V14.01,2013-01-09 11:19:00,
2013-01-09 05:24:00,25.8,23.5,30.16,West,269,8.0,11.0,91,0.00,,,0.00,VWS V14.01,2013-01-09 11:24:00,
2013-01-09 05:29:00,25.8,23.8,30.16,WNW,283,4.0,11.0,92,0.00,,,0.00,VWS V14.01,2013-01-09 11:29:00,
2013-01-09 05:30:00,25.9,23.9,30.16,WNW,285,3.0,11.0,92,0.00,,SKC,0.00,VWS V14.01,2013-01-09 11:30:00,
2013-01-09 05:34:00,26.3,24.3,30.16,West,267,9.0,11.0,92,0.00,,,0.00,VWS V14.01,2013-01-09 11:34:00,
2013-01-09 05:39:00,26.9,24.6,30.16,West,260,6.0,12.0,91,0.00,,,0.00,VWS V14.01,2013-01-09 11:39:00,
2013-01-09 05:44:00,26.5,23.7,30.16,WSW,253,5.0,12.0,89,0.00,,,0.00,VWS V14.01,2013-01-09 11:44:00,
2013-01-09 05:49:00,25.6,22.8,30.16,West,281,3.0,12.0,89,0.00,,,0.00,VWS V14.01,2013-01-09 11:49:00,
2013-01-09 05:54:00,25.2,23.0,30.16,West,278,8.0,12.0,91,0.00,,,0.00,VWS V14.01,2013-01-09 11:54:00,
2013-01-09 05:59:00,25.5,23.2,30.16,WSW,254,6.0,12.0,91,0.00,,,0.00,VWS V14.01,2013-01-09 11:59:00,
2013-01-09 06:00:00,25.5,23.2,30.16,West,278,5.0,12.0,91,0.00,,SKC,0.00,VWS V14.01,2013-01-09 12:00:00,
2013-01-09 06:04:00,25.4,23.1,30.17,WSW,246,4.0,8.0,91,0.00,,,0.00,VWS V14.01,2013-01-09 12:04:00,
2013-01-09 06:09:00,25.3,23.0,30.17,West,264,3.0,8.0,91,0.00,,,0.00,VWS V14.01,2013-01-09 12:09:00,
2013-01-09 06:14:00,25.1,22.9,30.17,WSW,252,7.0,9.0,91,0.00,,,0.00,VWS V14.01,2013-01-09 12:14:00,
2013-01-09 06:19:00,24.6,22.1,30.18,SW,231,10.0,10.0,90,0.00,,,0.00,VWS V14.01,2013-01-09 12:19:00,
2013-01-09 06:24:00,24.2,21.7,30.18,WSW,240,7.0,11.0,90,0.00,,,0.00,VWS V14.01,2013-01-09 12:24:00,
2013-01-09 06:29:00,23.8,21.6,30.18,WSW,256,5.0,11.0,91,0.00,,,0.00,VWS V14.01,2013-01-09 12:29:00,
2013-01-09 06:30:00,23.6,21.4,30.18,WSW,250,5.0,11.0,91,0.00,,SKC,0.00,VWS V14.01,2013-01-09 12:30:00,
2013-01-09 06:34:00,23.4,21.4,30.18,WSW,252,5.0,11.0,92,0.00,,,0.00,VWS V14.01,2013-01-09 12:34:00,
2013-01-09 06:39:00,23.2,21.2,30.18,WSW,252,2.0,11.0,92,0.00,,,0.00,VWS V14.01,2013-01-09 12:39:00,
2013-01-09 06:44:00,23.1,21.4,30.19,WSW,243,7.0,11.0,93,0.00,,,0.00,VWS V14.01,2013-01-09 12:44:00,
2013-01-09 06:49:00,23.1,21.4,30.19,West,259,1.0,11.0,93,0.00,,,0.00,VWS V14.01,2013-01-09 12:49:00,
2013-01-09 06:54:00,23.0,21.3,30.19,WSW,250,4.0,11.0,93,0.00,,,0.00,VWS V14.01,2013-01-09 12:54:00,
2013-01-09 06:59:00,22.9,21.2,30.19,WSW,250,3.0,11.0,93,0.00,,,0.00,VWS V14.01,2013-01-09 12:59:00,
2013-01-09 07:00:00,22.8,21.1,30.19,WSW,246,4.0,11.0,93,0.00,,SKC,0.00,VWS V14.01,2013-01-09 13:00:00,
2013-01-09 07:04:00,22.8,21.1,30.19,West,271,3.0,4.0,93,0.00,,,0.00,VWS V14.01,2013-01-09 13:04:00,
2013-01-09 07:09:00,22.7,21.0,30.20,West,280,3.0,4.0,93,0.00,,,0.00,VWS V14.01,2013-01-09 13:09:00,
2013-01-09 07:14:00,22.9,21.2,30.20,SW,224,5.0,6.0,93,0.00,,,0.00,VWS V14.01,2013-01-09 13:14:00,
2013-01-09 07:19:00,23.1,21.4,30.20,WSW,255,3.0,6.0,93,0.00,,,0.00,VWS V14.01,2013-01-09 13:19:00,
2013-01-09 07:24:00,23.2,21.5,30.20,West,259,2.0,7.0,93,0.00,,,0.00,VWS V14.01,2013-01-09 13:24:00,
2013-01-09 07:29:00,22.8,20.8,30.21,WSW,243,5.0,8.0,92,0.00,,,0.00,VWS V14.01,2013-01-09 13:29:00,
2013-01-09 07:30:00,22.8,20.8,30.21,West,260,3.0,8.0,92,0.00,,SKC,0.00,VWS V14.01,2013-01-09 13:30:00,
2013-01-09 07:34:00,22.9,21.2,30.21,WSW,252,4.0,8.0,93,0.00,,,0.00,VWS V14.01,2013-01-09 13:34:00,
2013-01-09 07:39:00,23.1,21.4,30.21,WSW,257,6.0,9.0,93,0.00,,,0.00,VWS V14.01,2013-01-09 13:39:00,
2013-01-09 07:44:00,22.9,20.9,30.21,West,273,2.0,9.0,92,0.00,,,0.00,VWS V14.01,2013-01-09 13:44:00,
2013-01-09 07:49:00,23.1,21.4,30.21,WNW,287,5.0,9.0,93,0.00,,,0.00,VWS V14.01,2013-01-09 13:49:00,
2013-01-09 07:54:00,23.6,21.9,30.21,WSW,255,4.0,9.0,93,0.00,,,0.00,VWS V14.01,2013-01-09 13:54:00,
2013-01-09 07:59:00,23.8,21.8,30.22,West,280,5.0,9.0,92,0.00,,,0.00,VWS V14.01,2013-01-09 13:59:00,
2013-01-09 08:00:00,24.0,22.0,30.22,West,271,3.0,9.0,92,0.00,,SKC,0.00,VWS V14.01,2013-01-09 14:00:00,
2013-01-09 08:04:00,24.7,23.0,30.22,WSW,254,8.0,10.0,93,0.00,,,0.00,VWS V14.01,2013-01-09 14:04:00,
2013-01-09 08:09:00,25.7,23.4,30.22,WNW,285,6.0,11.0,91,0.00,,,0.00,VWS V14.01,2013-01-09 14:09:00,
2013-01-09 08:14:00,26.3,23.8,30.22,West,274,2.0,11.0,90,0.00,,,0.00,VWS V14.01,2013-01-09 14:14:00,
2013-01-09 08:19:00,27.0,24.2,30.22,West,277,6.0,11.0,89,0.00,,,0.00,VWS V14.01,2013-01-09 14:19:00,
2013-01-09 08:24:00,27.6,24.5,30.23,West,271,7.0,11.0,88,0.00,,,0.00,VWS V14.01,2013-01-09 14:24:00,
2013-01-09 08:29:00,27.8,24.4,30.23,West,264,7.0,13.0,87,0.00,,,0.00,VWS V14.01,2013-01-09 14:29:00,
2013-01-09 08:30:00,27.8,24.4,30.23,West,264,5.0,13.0,87,0.00,,SKC,0.00,VWS V14.01,2013-01-09 14:30:00,
2013-01-09 08:34:00,28.1,24.7,30.23,WSW,246,3.0,9.0,87,0.00,,,0.00,VWS V14.01,2013-01-09 14:34:00,
2013-01-09 08:39:00,27.6,23.4,30.24,WSW,250,6.0,10.0,84,0.00,,,0.00,VWS V14.01,2013-01-09 14:39:00,
2013-01-09 08:44:00,26.6,23.0,30.24,West,259,4.0,10.0,86,0.00,,,0.00,VWS V14.01,2013-01-09 14:44:00,
2013-01-09 08:49:00,26.1,22.8,30.24,WSW,243,4.0,10.0,87,0.00,,,0.00,VWS V14.01,2013-01-09 14:49:00,
2013-01-09 08:54:00,26.1,22.8,30.24,WSW,250,6.0,12.0,87,0.00,,,0.00,VWS V14.01,2013-01-09 14:54:00,
2013-01-09 08:59:00,25.9,22.6,30.25,SW,236,8.0,12.0,87,0.00,,,0.00,VWS V14.01,2013-01-09 14:59:00,
2013-01-09 09:00:00,25.8,22.5,30.25,SW,233,7.0,12.0,87,0.00,,SKC,0.00,VWS V14.01,2013-01-09 15:00:00,
2013-01-09 09:04:00,25.8,22.7,30.25,WSW,249,6.0,9.0,88,0.00,,,0.00,VWS V14.01,2013-01-09 15:04:00,
2013-01-09 09:09:00,25.9,22.8,30.27,WSW,252,10.0,12.0,88,0.00,,,0.00,VWS V14.01,2013-01-09 15:09:00,
2013-01-09 09:14:00,26.2,23.4,30.28,West,267,8.0,13.0,89,0.00,,,0.00,VWS V14.01,2013-01-09 15:14:00,
2013-01-09 09:19:00,26.6,23.8,30.28,West,273,8.0,13.0,89,0.00,,,0.00,VWS V14.01,2013-01-09 15:19:00,
2013-01-09 09:24:00,27.0,24.2,30.29,WSW,242,9.0,13.0,89,0.00,,,0.00,VWS V14.01,2013-01-09 15:24:00,
2013-01-09 09:29:00,27.5,24.7,30.29,WSW,243,10.0,13.0,89,0.00,,,0.00,VWS V14.01,2013-01-09 15:29:00,
2013-01-09 09:30:00,27.7,24.6,30.29,WSW,248,6.0,13.0,88,0.00,,SKC,0.00,VWS V14.01,2013-01-09 15:30:00,
2013-01-09 09:34:00,28.0,24.9,30.29,WNW,285,7.0,10.0,88,0.00,,,0.00,VWS V14.01,2013-01-09 15:34:00,
2013-01-09 09:39:00,28.5,25.4,30.29,SW,233,12.0,12.0,88,0.00,,,0.00,VWS V14.01,2013-01-09 15:39:00,
2013-01-09 09:44:00,29.2,25.5,30.29,West,276,4.0,13.0,86,0.00,,,0.00,VWS V14.01,2013-01-09 15:44:00,
2013-01-09 09:49:00,29.8,25.9,30.29,West,280,7.0,13.0,85,0.00,,,0.00,VWS V14.01,2013-01-09 15:49:00,
2013-01-09 09:54:00,30.2,26.0,30.29,West,262,6.0,13.0,84,0.00,,,0.00,VWS V14.01,2013-01-09 15:54:00,
2013-01-09 09:59:00,30.4,25.9,30.29,WNW,290,7.0,13.0,83,0.00,,,0.00,VWS V14.01,2013-01-09 15:59:00,
2013-01-09 10:00:00,30.5,26.0,30.29,WNW,291,6.0,13.0,83,0.00,,SKC,0.00,VWS V14.01,2013-01-09 16:00:00,
2013-01-09 10:04:00,30.6,26.1,30.29,WNW,290,8.0,12.0,83,0.00,,,0.00,VWS V14.01,2013-01-09 16:04:00,
2013-01-09 10:09:00,30.5,26.2,30.30,West,259,8.0,13.0,84,0.00,,,0.00,VWS V14.01,2013-01-09 16:09:00,
2013-01-09 10:14:00,30.7,26.5,30.31,West,266,9.0,13.0,84,0.00,,,0.00,VWS V14.01,2013-01-09 16:14:00,
2013-01-09 10:19:00,31.1,26.3,30.31,West,276,8.0,13.0,82,0.00,,,0.00,VWS V14.01,2013-01-09 16:19:00,
2013-01-09 10:24:00,31.4,26.5,30.32,West,274,4.0,13.0,82,0.00,,,0.00,VWS V14.01,2013-01-09 16:24:00,
2013-01-09 10:29:00,31.5,26.6,30.32,WNW,288,6.0,15.0,82,0.00,,,0.00,VWS V14.01,2013-01-09 16:29:00,
2013-01-09 10:30:00,31.5,26.6,30.32,West,262,8.0,15.0,82,0.00,,SKC,0.00,VWS V14.01,2013-01-09 16:30:00,
2013-01-09 10:34:00,31.5,26.6,30.32,WNW,288,5.0,13.0,82,0.00,,,0.00,VWS V14.01,2013-01-09 16:34:00,
2013-01-09 10:39:00,31.9,27.0,30.32,WNW,282,3.0,13.0,82,0.00,,,0.00,VWS V14.01,2013-01-09 16:39:00,
2013-01-09 10:44:00,32.3,26.8,30.32,West,266,8.0,13.0,80,0.00,,,0.00,VWS V14.01,2013-01-09 16:44:00,
2013-01-09 10:49:00,32.4,26.9,30.33,WNW,294,5.0,13.0,80,0.00,,,0.00,VWS V14.01,2013-01-09 16:49:00,
2013-01-09 10:54:00,32.7,26.9,30.33,West,264,5.0,13.0,79,0.00,,,0.00,VWS V14.01,2013-01-09 16:54:00,
2013-01-09 10:59:00,32.8,27.0,30.33,West,267,6.0,13.0,79,0.00,,,0.00,VWS V14.01,2013-01-09 16:59:00,
2013-01-09 11:00:00,32.8,27.0,30.33,West,259,8.0,13.0,79,0.00,,SKC,0.00,VWS V14.01,2013-01-09 17:00:00,
2013-01-09 11:04:00,32.7,27.2,30.34,WSW,253,11.0,14.0,80,0.00,,,0.00,VWS V14.01,2013-01-09 17:04:00,
2013-01-09 11:09:00,32.7,27.2,30.35,West,281,12.0,14.0,80,0.00,,,0.00,VWS V14.01,2013-01-09 17:09:00,
2013-01-09 11:14:00,32.8,27.3,30.36,West,278,10.0,15.0,80,0.00,,,0.00,VWS V14.01,2013-01-09 17:14:00,
2013-01-09 11:19:00,33.0,27.8,30.36,WSW,246,12.0,15.0,81,0.00,,,0.00,VWS V14.01,2013-01-09 17:19:00,
2013-01-09 11:24:00,33.1,28.2,30.37,West,259,7.0,15.0,82,0.00,,,0.00,VWS V14.01,2013-01-09 17:24:00,
2013-01-09 11:29:00,33.1,28.5,30.38,WSW,240,5.0,17.0,83,0.00,,,0.00,VWS V14.01,2013-01-09 17:29:00,
2013-01-09 11:30:00,33.1,28.5,30.38,SW,236,8.0,17.0,83,0.00,,SKC,0.00,VWS V14.01,2013-01-09 17:30:00,
2013-01-09 11:34:00,33.1,28.8,30.37,West,273,7.0,13.0,84,0.00,,,0.00,VWS V14.01,2013-01-09 17:34:00,
2013-01-09 11:39:00,33.2,28.6,30.37,West,273,12.0,18.0,83,0.00,,,0.00,VWS V14.01,2013-01-09 17:39:00,
2013-01-09 11:44:00,33.3,28.7,30.37,West,276,6.0,18.0,83,0.00,,,0.00,VWS V14.01,2013-01-09 17:44:00,
2013-01-09 11:49:00,33.6,28.7,30.36,WNW,300,7.0,18.0,82,0.00,,,0.00,VWS V14.01,2013-01-09 17:49:00,
2013-01-09 11:54:00,33.9,29.0,30.37,West,270,7.0,18.0,82,0.00,,,0.00,VWS V14.01,2013-01-09 17:54:00,
2013-01-09 11:59:00,33.9,29.0,30.38,WSW,242,16.0,19.0,82,0.00,,,0.00,VWS V14.01,2013-01-09 17:59:00,
2013-01-09 12:00:00,33.9,29.0,30.38,SW,236,6.0,19.0,82,0.00,,SKC,0.00,VWS V14.01,2013-01-09 18:00:00,
2013-01-09 12:04:00,33.9,29.0,30.38,WSW,245,12.0,20.0,82,0.00,,,0.00,VWS V14.01,2013-01-09 18:04:00,
2013-01-09 12:09:00,34.0,29.4,30.38,West,280,10.0,20.0,83,0.00,,,0.00,VWS V14.01,2013-01-09 18:09:00,
2013-01-09 12:14:00,34.1,29.5,30.38,West,269,7.0,20.0,83,0.00,,,0.00,VWS V14.01,2013-01-09 18:14:00,
2013-01-09 12:19:00,34.3,29.4,30.38,WSW,253,10.0,20.0,82,0.00,,,0.00,VWS V14.01,2013-01-09 18:19:00,
2013-01-09 12:24:00,34.4,29.8,30.38,West,270,9.0,20.0,83,0.00,,,0.00,VWS V14.01,2013-01-09 18:24:00,
2013-01-09 12:29:00,34.6,29.7,30.38,WSW,252,9.0,20.0,82,0.00,,,0.00,VWS V14.01,2013-01-09 18:29:00,
2013-01-09 12:30:00,34.6,29.7,30.38,West,271,7.0,20.0,82,0.00,,SKC,0.00,VWS V14.01,2013-01-09 18:30:00,
2013-01-09 12:34:00,34.8,30.2,30.37,West,266,8.0,17.0,83,0.00,,,0.00,VWS V14.01,2013-01-09 18:34:00,
2013-01-09 12:39:00,34.9,30.0,30.38,WSW,257,11.0,18.0,82,0.00,,,0.00,VWS V14.01,2013-01-09 18:39:00,
2013-01-09 12:41:00,34.9,30.0,30.37,West,266,7.0,18.0,82,0.00,,,0.00,VWS V14.01,2013-01-09 18:41:00,
2013-01-09 12:44:00,35.0,30.1,30.37,West,259,8.0,18.0,82,0.00,,,0.00,VWS V14.01,2013-01-09 18:44:00,
2013-01-09 12:48:00,35.1,30.2,30.38,SSW,199,7.0,18.0,82,0.00,,,0.00,VWS V14.01,2013-01-09 18:48:00,
2013-01-09 12:53:00,35.3,30.4,30.39,SW,224,12.0,18.0,82,0.00,,,0.00,VWS V14.01,2013-01-09 18:53:00,
2013-01-09 12:58:00,35.4,30.5,30.39,SW,235,9.0,18.0,82,0.00,,,0.00,VWS V14.01,2013-01-09 18:58:00,
2013-01-09 13:00:00,35.5,30.6,30.39,WNW,286,6.0,18.0,82,0.00,,SKC,0.00,VWS V14.01,2013-01-09 19:00:00,
2013-01-09 13:01:00,35.5,30.6,30.39,WNW,286,6.0,18.0,82,0.00,,,0.00,VWS V14.01,2013-01-09 19:01:00,
2013-01-09 13:06:00,35.7,30.5,30.39,WSW,257,9.0,16.0,81,0.00,,,0.00,VWS V14.01,2013-01-09 19:06:00,
2013-01-09 13:10:00,35.8,30.5,30.40,WSW,248,13.0,21.0,81,0.00,,,0.00,VWS V14.01,2013-01-09 19:10:00,
2013-01-09 13:15:00,36.0,30.4,30.40,WSW,250,10.0,21.0,80,0.00,,,0.00,VWS V14.01,2013-01-09 19:15:00,
2013-01-09 13:20:00,36.2,30.6,30.39,WSW,245,4.0,21.0,80,0.00,,,0.00,VWS V14.01,2013-01-09 19:20:00,
2013-01-09 13:25:00,36.3,30.7,30.39,West,262,9.0,21.0,80,0.00,,,0.00,VWS V14.01,2013-01-09 19:25:00,
2013-01-09 13:30:00,36.4,30.5,30.39,WNW,294,17.0,21.0,79,0.00,,,0.00,VWS V14.01,2013-01-09 19:30:00,
2013-01-09 13:31:00,36.4,30.5,30.40,West,271,12.0,21.0,79,0.00,,,0.00,VWS V14.01,2013-01-09 19:31:00,
2013-01-09 13:36:00,36.5,30.6,30.40,West,264,9.0,19.0,79,0.00,,,0.00,VWS V14.01,2013-01-09 19:36:00,
2013-01-09 13:41:00,36.5,30.6,30.40,West,260,9.0,19.0,79,0.00,,,0.00,VWS V14.01,2013-01-09 19:41:00,
2013-01-09 13:46:00,36.6,30.7,30.40,WSW,255,8.0,19.0,79,0.00,,,0.00,VWS V14.01,2013-01-09 19:46:00,
2013-01-09 13:51:00,36.7,30.8,30.40,West,272,12.0,19.0,79,0.00,,,0.00,VWS V14.01,2013-01-09 19:51:00,
2013-01-09 13:56:00,36.8,30.9,30.40,WSW,256,11.0,19.0,79,0.00,,,0.00,VWS V14.01,2013-01-09 19:56:00,
2013-01-09 14:00:00,36.8,30.9,30.40,WNW,284,13.0,19.0,79,0.00,,SKC,0.00,VWS V14.01,2013-01-09 20:00:00,
2013-01-09 14:01:00,36.8,30.9,30.40,WNW,284,13.0,19.0,79,0.00,,,0.00,VWS V14.01,2013-01-09 20:01:00,
2013-01-09 14:06:00,36.9,31.0,30.41,WSW,245,8.0,13.0,79,0.00,,,0.00,VWS V14.01,2013-01-09 20:06:00,
2013-01-09 14:11:00,37.0,31.1,30.41,West,271,8.0,14.0,79,0.00,,,0.00,VWS V14.01,2013-01-09 20:11:00,
2013-01-09 14:16:00,37.2,31.0,30.41,WNW,297,10.0,14.0,78,0.00,,,0.00,VWS V14.01,2013-01-09 20:16:00,
2013-01-09 14:21:00,37.5,31.0,30.41,West,270,3.0,14.0,77,0.00,,,0.00,VWS V14.01,2013-01-09 20:21:00,
2013-01-09 14:25:00,37.7,30.8,30.40,West,266,5.0,14.0,76,0.00,,,0.00,VWS V14.01,2013-01-09 20:25:00,
2013-01-09 14:30:00,37.9,30.7,30.40,WNW,284,2.0,14.0,75,0.00,,,0.00,VWS V14.01,2013-01-09 20:30:00,
2013-01-09 14:35:00,37.9,30.7,30.40,West,278,9.0,11.0,75,0.00,,,0.00,VWS V14.01,2013-01-09 20:35:00,
2013-01-09 14:40:00,37.8,30.6,30.40,West,277,4.0,12.0,75,0.00,,,0.00,VWS V14.01,2013-01-09 20:40:00,
2013-01-09 14:45:00,37.8,30.3,30.40,West,271,7.0,12.0,74,0.00,,,0.00,VWS V14.01,2013-01-09 20:45:00,
2013-01-09 14:50:00,38.1,30.2,30.39,WNW,300,2.0,12.0,73,0.00,,,0.00,VWS V14.01,2013-01-09 20:50:00,
2013-01-09 14:55:00,38.5,29.2,30.39,WNW,302,4.0,12.0,69,0.00,,,0.00,VWS V14.01,2013-01-09 20:55:00,
2013-01-09 15:00:00,38.6,29.0,30.39,WNW,301,2.0,12.0,68,0.00,,SKC,0.00,VWS V14.01,2013-01-09 21:00:00,
2013-01-09 15:01:00,38.6,29.0,30.39,NW,305,2.0,12.0,68,0.00,,,0.00,VWS V14.01,2013-01-09 21:01:00,
2013-01-09 15:06:00,38.7,28.7,30.39,WNW,293,4.0,6.0,67,0.00,,,0.00,VWS V14.01,2013-01-09 21:06:00,
2013-01-09 15:11:00,38.9,28.9,30.39,WNW,283,1.0,7.0,67,0.00,,,0.00,VWS V14.01,2013-01-09 21:11:00,
2013-01-09 15:16:00,39.3,28.9,30.39,WNW,285,1.0,7.0,66,0.00,,,0.00,VWS V14.01,2013-01-09 21:16:00,
2013-01-09 15:20:00,39.4,29.0,30.38,NNW,328,2.0,7.0,66,0.00,,,0.00,VWS V14.01,2013-01-09 21:20:00,
2013-01-09 15:25:00,39.1,29.1,30.38,NW,306,1.0,7.0,67,0.00,,,0.00,VWS V14.01,2013-01-09 21:25:00,
2013-01-09 15:30:00,38.8,29.5,30.38,WNW,297,2.0,7.0,69,0.00,,SKC,0.00,VWS V14.01,2013-01-09 21:30:00,
2013-01-09 15:31:00,38.8,29.5,30.38,WNW,297,2.0,7.0,69,0.00,,,0.00,VWS V14.01,2013-01-09 21:31:00,
2013-01-09 15:36:00,38.4,29.8,30.38,WNW,294,1.0,4.0,71,0.00,,,0.00,VWS V14.01,2013-01-09 21:36:00,
2013-01-09 15:41:00,38.3,29.7,30.38,WNW,293,2.0,4.0,71,0.00,,,0.00,VWS V14.01,2013-01-09 21:41:00,
2013-01-09 15:46:00,38.4,29.8,30.38,NW,307,1.0,4.0,71,0.00,,,0.00,VWS V14.01,2013-01-09 21:46:00,
2013-01-09 15:51:00,38.3,29.4,30.38,NW,305,1.0,4.0,70,0.00,,,0.00,VWS V14.01,2013-01-09 21:51:00,
2013-01-09 15:56:00,38.3,29.7,30.38,West,276,1.0,4.0,71,0.00,,,0.00,VWS V14.01,2013-01-09 21:56:00,
2013-01-09 16:00:00,37.7,29.5,30.39,WNW,286,2.0,4.0,72,0.00,,SKC,0.00,VWS V14.01,2013-01-09 22:00:00,
2013-01-09 16:01:00,37.7,29.5,30.39,WNW,284,2.0,4.0,72,0.00,,,0.00,VWS V14.01,2013-01-09 22:01:00,
2013-01-09 16:06:00,37.6,29.4,30.39,West,276,3.0,3.0,72,0.00,,,0.00,VWS V14.01,2013-01-09 22:06:00,
2013-01-09 16:11:00,37.6,29.4,30.39,WNW,284,1.0,3.0,72,0.00,,,0.00,VWS V14.01,2013-01-09 22:11:00,
2013-01-09 16:16:00,37.7,29.5,30.38,WNW,290,0.0,3.0,72,0.00,,,0.00,VWS V14.01,2013-01-09 22:16:00,
2013-01-09 16:21:00,37.7,29.2,30.38,North,352,0.0,3.0,71,0.00,,,0.00,VWS V14.01,2013-01-09 22:21:00,
2013-01-09 16:26:00,37.7,29.2,30.38,North,359,1.0,3.0,71,0.00,,,0.00,VWS V14.01,2013-01-09 22:26:00,
2013-01-09 16:30:00,37.5,29.0,30.37,North,359,1.0,3.0,71,0.00,,,0.00,VWS V14.01,2013-01-09 22:30:00,
2013-01-09 16:36:00,37.5,29.3,30.38,North,1,0.0,1.0,72,0.00,,,0.00,VWS V14.01,2013-01-09 22:36:00,
2013-01-09 16:41:00,37.4,28.9,30.38,West,274,1.0,1.0,71,0.00,,,0.00,VWS V14.01,2013-01-09 22:41:00,
2013-01-09 16:45:00,36.7,28.5,30.38,West,263,0.0,1.0,72,0.00,,,0.00,VWS V14.01,2013-01-09 22:45:00,
2013-01-09 16:50:00,36.0,28.2,30.38,WSW,245,0.0,1.0,73,0.00,,,0.00,VWS V14.01,2013-01-09 22:50:00,
2013-01-09 16:55:00,35.3,27.9,30.38,WSW,246,0.0,1.0,74,0.00,,,0.00,VWS V14.01,2013-01-09 22:55:00,
2013-01-09 17:00:00,34.9,27.8,30.37,WSW,245,0.0,1.0,75,0.00,,,0.00,VWS V14.01,2013-01-09 23:00:00,
2013-01-09 17:05:00,34.1,27.0,30.38,WSW,245,0.0,0.0,75,0.00,,,0.00,VWS V14.01,2013-01-09 23:05:00,
2013-01-09 17:10:00,33.4,27.3,30.38,WSW,245,0.0,0.0,78,0.00,,,0.00,VWS V14.01,2013-01-09 23:10:00,
2013-01-09 17:16:00,32.6,26.8,30.38,WSW,245,0.0,0.0,79,0.00,,,0.00,VWS V14.01,2013-01-09 23:16:00,
2013-01-09 17:21:00,32.2,27.3,30.38,WSW,238,0.0,0.0,82,0.00,,,0.00,VWS V14.01,2013-01-09 23:21:00,
2013-01-09 17:26:00,32.4,28.4,30.38,WSW,246,0.0,1.0,85,0.00,,,0.00,VWS V14.01,2013-01-09 23:26:00,
2013-01-09 17:30:00,32.4,28.7,30.38,SW,228,3.0,3.0,86,0.00,,SKC,0.00,VWS V14.01,2013-01-09 23:30:00,
2013-01-09 17:31:00,32.4,28.7,30.38,SW,228,3.0,3.0,86,0.00,,,0.00,VWS V14.01,2013-01-09 23:31:00,
2013-01-09 17:36:00,32.1,28.7,30.38,SSW,208,1.0,3.0,87,0.00,,,0.00,VWS V14.01,2013-01-09 23:36:00,
2013-01-09 17:41:00,32.0,28.6,30.39,South,183,2.0,4.0,87,0.00,,,0.00,VWS V14.01,2013-01-09 23:41:00,
2013-01-09 17:46:00,31.9,28.8,30.38,SSW,204,2.0,4.0,88,0.00,,,0.00,VWS V14.01,2013-01-09 23:46:00,
2013-01-09 17:51:00,32.3,29.1,30.38,SSW,204,3.0,5.0,88,0.00,,,0.00,VWS V14.01,2013-01-09 23:51:00,
2013-01-09 17:56:00,32.3,29.1,30.38,SSW,211,1.0,5.0,88,0.00,,,0.00,VWS V14.01,2013-01-09 23:56:00,
2013-01-09 18:00:00,32.0,28.6,30.38,SW,217,3.0,5.0,87,0.00,,SKC,0.00,VWS V14.01,2013-01-10 00:00:00,
2013-01-09 18:01:00,32.0,28.6,30.38,SW,217,3.0,5.0,87,0.00,,,0.00,VWS V14.01,2013-01-10 00:01:00,
2013-01-09 18:06:00,31.8,28.7,30.39,SSW,204,2.0,5.0,88,0.00,,,0.00,VWS V14.01,2013-01-10 00:06:00,
2013-01-09 18:11:00,32.0,29.1,30.39,South,188,4.0,6.0,89,0.00,,,0.00,VWS V14.01,2013-01-10 00:11:00,
2013-01-09 18:16:00,32.0,28.9,30.39,SSW,204,0.0,6.0,88,0.00,,,0.00,VWS V14.01,2013-01-10 00:16:00,
2013-01-09 18:21:00,31.8,28.9,30.39,SSW,208,2.0,6.0,89,0.00,,,0.00,VWS V14.01,2013-01-10 00:21:00,
2013-01-09 18:26:00,31.8,28.7,30.39,South,180,1.0,6.0,88,0.00,,,0.00,VWS V14.01,2013-01-10 00:26:00,
2013-01-09 18:30:00,31.6,28.5,30.39,SSE,150,0.0,6.0,88,0.00,,SKC,0.00,VWS V14.01,2013-01-10 00:30:00,
2013-01-09 18:31:00,31.6,28.5,30.39,SSE,151,0.0,0.0,88,0.00,,,0.00,VWS V14.01,2013-01-10 00:31:00,
2013-01-09 18:36:00,31.4,28.5,30.39,SSE,149,0.0,1.0,89,0.00,,,0.00,VWS V14.01,2013-01-10 00:36:00,
2013-01-09 18:41:00,31.5,28.9,30.39,SE,134,0.0,2.0,90,0.00,,,0.00,VWS V14.01,2013-01-10 00:41:00,
2013-01-09 18:46:00,31.2,28.3,30.39,SE,134,1.0,2.0,89,0.00,,,0.00,VWS V14.01,2013-01-10 00:46:00,
2013-01-09 18:51:00,30.9,28.3,30.39,SSE,150,0.0,2.0,90,0.00,,,0.00,VWS V14.01,2013-01-10 00:51:00,
2013-01-09 18:56:00,30.9,28.3,30.39,SE,146,1.0,2.0,90,0.00,,,0.00,VWS V14.01,2013-01-10 00:56:00,
2013-01-09 19:00:00,30.9,28.3,30.39,SE,146,1.0,2.0,90,0.00,,SKC,0.00,VWS V14.01,2013-01-10 01:00:00,
2013-01-09 19:01:00,30.9,28.3,30.39,SE,146,1.0,2.0,90,0.00,,,0.00,VWS V14.01,2013-01-10 01:01:00,
2013-01-09 19:06:00,30.9,28.3,30.39,SSE,156,2.0,2.0,90,0.00,,,0.00,VWS V14.01,2013-01-10 01:06:00,
2013-01-09 19:11:00,31.2,28.9,30.39,SSW,197,3.0,4.0,91,0.00,,,0.00,VWS V14.01,2013-01-10 01:11:00,
2013-01-09 19:16:00,31.4,28.8,30.39,SSE,155,3.0,4.0,90,0.00,,,0.00,VWS V14.01,2013-01-10 01:16:00,
2013-01-09 19:21:00,31.4,28.8,30.39,SSE,149,3.0,4.0,90,0.00,,,0.00,VWS V14.01,2013-01-10 01:21:00,
2013-01-09 19:26:00,31.3,28.7,30.39,SSE,153,1.0,4.0,90,0.00,,,0.00,VWS V14.01,2013-01-10 01:26:00,
2013-01-09 19:30:00,31.3,28.7,30.38,South,175,3.0,4.0,90,0.00,,SKC,0.00,VWS V14.01,2013-01-10 01:30:00,
2013-01-09 19:31:00,31.3,28.7,30.38,SSE,155,2.0,3.0,90,0.00,,,0.00,VWS V14.01,2013-01-10 01:31:00,
2013-01-09 19:36:00,31.3,28.7,30.38,SE,145,2.0,5.0,90,0.00,,,0.00,VWS V14.01,2013-01-10 01:36:00,
2013-01-09 19:41:00,31.1,28.2,30.38,SSE,166,3.0,5.0,89,0.00,,,0.00,VWS V14.01,2013-01-10 01:41:00,
2013-01-09 19:46:00,31.0,28.4,30.39,SSE,158,2.0,5.0,90,0.00,,,0.00,VWS V14.01,2013-01-10 01:46:00,
2013-01-09 19:51:00,30.8,28.2,30.39,SSE,151,1.0,5.0,90,0.00,,,0.00,VWS V14.01,2013-01-10 01:51:00,
2013-01-09 19:56:00,30.6,28.0,30.38,South,172,2.0,5.0,90,0.00,,,0.00,VWS V14.01,2013-01-10 01:56:00,
2013-01-09 20:00:00,30.6,28.3,30.39,SE,138,3.0,5.0,91,0.00,,SKC,0.00,VWS V14.01,2013-01-10 02:00:00,
2013-01-09 20:01:00,30.6,28.3,30.39,SE,138,3.0,5.0,91,0.00,,,0.00,VWS V14.01,2013-01-10 02:01:00,
2013-01-09 20:06:00,30.5,28.2,30.39,SE,144,3.0,4.0,91,0.00,,,0.00,VWS V14.01,2013-01-10 02:06:00,
2013-01-09 20:11:00,30.9,28.9,30.39,SE,135,4.0,6.0,92,0.00,,,0.00,VWS V14.01,2013-01-10 02:11:00,
2013-01-09 20:16:00,31.2,28.9,30.39,SE,138,4.0,7.0,91,0.00,,,0.00,VWS V14.01,2013-01-10 02:16:00,
2013-01-09 20:21:00,31.3,29.0,30.38,SSE,149,4.0,7.0,91,0.00,,,0.00,VWS V14.01,2013-01-10 02:21:00,
2013-01-09 20:26:00,31.2,28.9,30.38,SSE,153,8.0,8.0,91,0.00,,,0.00,VWS V14.01,2013-01-10 02:26:00,
2013-01-09 20:30:00,31.4,29.1,30.38,SSE,156,2.0,8.0,91,0.00,,SKC,0.00,VWS V14.01,2013-01-10 02:30:00,
2013-01-09 20:31:00,31.4,29.1,30.38,SE,139,3.0,3.0,91,0.00,,,0.00,VWS V14.01,2013-01-10 02:31:00,
2013-01-09 20:36:00,31.2,28.6,30.38,SE,129,2.0,4.0,90,0.00,,,0.00,VWS V14.01,2013-01-10 02:36:00,
2013-01-09 20:41:00,30.9,28.3,30.38,SE,146,5.0,7.0,90,0.00,,,0.00,VWS V14.01,2013-01-10 02:41:00,
2013-01-09 20:46:00,31.0,28.7,30.38,SSW,208,3.0,8.0,91,0.00,,,0.00,VWS V14.01,2013-01-10 02:46:00,
2013-01-09 20:51:00,30.9,28.6,30.38,SSE,156,5.0,8.0,91,0.00,,,0.00,VWS V14.01,2013-01-10 02:51:00,
2013-01-09 20:56:00,30.9,28.6,30.39,SSE,152,6.0,8.0,91,0.00,,,0.00,VWS V14.01,2013-01-10 02:56:00,
2013-01-09 21:00:00,31.1,28.8,30.39,SSE,152,7.0,8.0,91,0.00,,SKC,0.00,VWS V14.01,2013-01-10 03:00:00,
2013-01-09 21:01:00,31.1,28.8,30.39,SSE,150,6.0,7.0,91,0.00,,,0.00,VWS V14.01,2013-01-10 03:01:00,
2013-01-09 21:06:00,31.1,28.5,30.39,South,183,5.0,7.0,90,0.00,,,0.00,VWS V14.01,2013-01-10 03:06:00,
2013-01-09 21:11:00,31.3,29.0,30.39,SSE,154,4.0,8.0,91,0.00,,,0.00,VWS V14.01,2013-01-10 03:11:00,
2013-01-09 21:16:00,31.4,28.8,30.39,South,180,3.0,8.0,90,0.00,,,0.00,VWS V14.01,2013-01-10 03:16:00,
2013-01-09 21:21:00,31.3,28.4,30.39,South,176,4.0,8.0,89,0.00,,,0.00,VWS V14.01,2013-01-10 03:21:00,
2013-01-09 21:26:00,31.3,28.4,30.39,SSE,153,5.0,8.0,89,0.00,,,0.00,VWS V14.01,2013-01-10 03:26:00,
2013-01-09 21:30:00,31.4,28.5,30.39,South,188,6.0,8.0,89,0.00,,SKC,0.00,VWS V14.01,2013-01-10 03:30:00,
2013-01-09 21:31:00,31.4,28.5,30.39,South,173,4.0,6.0,89,0.00,,,0.00,VWS V14.01,2013-01-10 03:31:00,
2013-01-09 21:36:00,31.4,28.5,30.38,SE,134,5.0,7.0,89,0.00,,,0.00,VWS V14.01,2013-01-10 03:36:00,
2013-01-09 21:41:00,31.3,28.4,30.38,SSE,149,2.0,7.0,89,0.00,,,0.00,VWS V14.01,2013-01-10 03:41:00,
2013-01-09 21:46:00,31.4,28.5,30.39,SSE,163,6.0,8.0,89,0.00,,,0.00,VWS V14.01,2013-01-10 03:46:00,
2013-01-09 21:51:00,31.3,28.4,30.38,SSW,204,3.0,8.0,89,0.00,,,0.00,VWS V14.01,2013-01-10 03:51:00,
2013-01-09 21:56:00,31.1,28.2,30.38,South,186,4.0,8.0,89,0.00,,,0.00,VWS V14.01,2013-01-10 03:56:00,
2013-01-09 22:00:00,30.9,28.0,30.39,SSE,149,4.0,8.0,89,0.00,,SKC,0.00,VWS V14.01,2013-01-10 04:00:00,
2013-01-09 22:01:00,30.9,28.0,30.39,SSE,155,5.0,5.0,89,0.00,,,0.00,VWS V14.01,2013-01-10 04:01:00,
2013-01-09 22:06:00,30.8,28.2,30.38,SSE,166,2.0,6.0,90,0.00,,,0.00,VWS V14.01,2013-01-10 04:06:00,
2013-01-09 22:11:00,30.8,28.5,30.38,South,174,7.0,8.0,91,0.00,,,0.00,VWS V14.01,2013-01-10 04:11:00,
2013-01-09 22:16:00,30.7,28.1,30.39,South,177,6.0,8.0,90,0.00,,,0.00,VWS V14.01,2013-01-10 04:16:00,
2013-01-09 22:21:00,30.7,28.4,30.38,SE,135,5.0,8.0,91,0.00,,,0.00,VWS V14.01,2013-01-10 04:21:00,
2013-01-09 22:26:00,30.9,28.6,30.38,SSE,165,7.0,8.0,91,0.00,,,0.00,VWS V14.01,2013-01-10 04:26:00,
2013-01-09 22:30:00,31.1,28.8,30.39,SSE,166,6.0,10.0,91,0.00,,SKC,0.00,VWS V14.01,2013-01-10 04:30:00,
2013-01-09 22:31:00,31.1,28.8,30.39,SSE,155,5.0,6.0,91,0.00,,,0.00,VWS V14.01,2013-01-10 04:31:00,
2013-01-09 22:36:00,31.0,28.4,30.39,SSE,156,6.0,10.0,90,0.00,,,0.00,VWS V14.01,2013-01-10 04:36:00,
2013-01-09 22:41:00,30.8,28.2,30.39,SSW,197,5.0,10.0,90,0.00,,,0.00,VWS V14.01,2013-01-10 04:41:00,
2013-01-09 23:00:00,30.6,28.3,30.40,SSE,148,5.0,8.0,91,0.00,,SKC,0.00,VWS V14.01,2013-01-10 05:00:00,
2013-01-09 23:30:00,31.4,28.3,30.40,ESE,117,6.0,13.0,88,0.00,,SKC,0.00,VWS V14.01,2013-01-10 05:30:00,